createdAt,value
2023-01-04T00:00:53.010Z,7.95
2023-01-04T00:03:20.522Z,7.97
2023-01-04T00:05:47.967Z,7.88
2023-01-04T00:08:15.234Z,7.70
2023-01-04T00:10:42.492Z,7.57
2023-01-04T00:13:09.763Z,7.47
2023-01-04T00:15:37.114Z,7.47
2023-01-04T00:18:04.631Z,7.49
2023-01-04T00:20:31.858Z,7.50
2023-01-04T00:22:59.187Z,7.52
2023-01-04T00:25:26.512Z,7.57
2023-01-04T00:27:53.869Z,7.69
2023-01-04T00:30:21.143Z,7.69
2023-01-04T00:32:48.503Z,7.75
2023-01-04T00:35:43.726Z,7.64
2023-01-04T00:38:03.259Z,7.56
2023-01-04T00:40:30.507Z,7.52
2023-01-04T00:42:57.834Z,7.57
2023-01-04T00:45:25.082Z,7.66
2023-01-04T00:47:52.344Z,7.56
2023-01-04T00:50:19.794Z,7.56
2023-01-04T00:52:49.858Z,7.67
2023-01-04T00:55:17.155Z,7.62
2023-01-04T00:57:44.430Z,7.69
2023-01-04T01:00:12.599Z,7.71
2023-01-04T01:02:40.109Z,7.73
2023-01-04T01:05:08.159Z,7.83
2023-01-04T01:07:35.485Z,7.95
2023-01-04T01:10:02.836Z,8.01
2023-01-04T01:12:30.134Z,7.75
2023-01-04T01:15:00.586Z,7.66
2023-01-04T01:17:28.190Z,7.77
2023-01-04T01:19:55.452Z,7.87
2023-01-04T01:22:23.003Z,7.99
2023-01-04T01:24:50.307Z,8.14
2023-01-04T01:27:18.230Z,8.18
2023-01-04T01:29:45.531Z,8.21
2023-01-04T01:32:12.828Z,8.11
2023-01-04T01:34:40.110Z,8.01
2023-01-04T01:37:07.417Z,8.08
2023-01-04T01:39:34.706Z,7.91
2023-01-04T01:42:02.049Z,7.84
2023-01-04T01:44:45.378Z,8.09
2023-01-04T01:47:21.827Z,7.85
2023-01-04T01:49:51.620Z,7.98
2023-01-04T01:52:21.915Z,8.09
2023-01-04T01:55:00.462Z,7.98
2023-01-04T01:57:29.672Z,7.94
2023-01-04T01:59:58.187Z,7.95
2023-01-04T02:02:25.840Z,8.05
2023-01-04T02:04:54.549Z,8.11
2023-01-04T02:07:23.426Z,8.29
2023-01-04T02:09:51.109Z,8.24
2023-01-04T02:12:18.402Z,8.21
2023-01-04T02:14:47.085Z,8.32
2023-01-04T02:17:16.732Z,7.99
2023-01-04T02:19:47.101Z,7.71
2023-01-04T02:22:43.687Z,7.62
2023-01-04T02:25:10.966Z,7.60
2023-01-04T02:27:59.798Z,7.59
2023-01-04T02:30:33.223Z,7.85
2023-01-04T02:33:00.493Z,8.01
2023-01-04T02:36:05.416Z,7.92
2023-01-04T02:38:57.721Z,7.73
2023-01-04T02:41:33.173Z,7.60
2023-01-04T02:44:27.630Z,7.66
2023-01-04T02:46:59.309Z,7.71
2023-01-04T02:49:45.118Z,7.84
2023-01-04T02:52:12.399Z,7.90
2023-01-04T02:54:39.683Z,7.92
2023-01-04T02:57:44.706Z,7.83
2023-01-04T03:00:21.222Z,7.84
2023-01-04T03:03:20.475Z,7.74
2023-01-04T03:06:18.277Z,7.62
2023-01-04T03:09:13.117Z,7.87
2023-01-04T03:12:04.175Z,8.02
2023-01-04T03:14:35.440Z,8.09
2023-01-04T03:17:04.982Z,7.91
2023-01-04T03:19:50.681Z,7.83
2023-01-04T03:23:04.781Z,7.71
2023-01-04T03:25:54.198Z,7.88
2023-01-04T03:28:40.501Z,7.92
2023-01-04T03:31:32.876Z,7.97
2023-01-04T03:34:18.903Z,7.97
2023-01-04T03:36:50.149Z,7.75
2023-01-04T03:39:50.769Z,7.59
2023-01-04T03:42:41.250Z,7.50
2023-01-04T03:45:35.288Z,7.62
2023-01-04T03:48:31.715Z,7.66
2023-01-04T03:51:17.283Z,7.85
2023-01-04T03:53:48.177Z,7.90
2023-01-04T03:56:15.693Z,7.83
2023-01-04T03:58:42.942Z,7.90
2023-01-04T04:01:10.346Z,7.92
2023-01-04T04:03:56.308Z,7.91
2023-01-04T04:06:42.351Z,7.91
2023-01-04T04:09:09.601Z,7.87
2023-01-04T04:11:36.904Z,7.81
2023-01-04T04:14:04.185Z,7.77
2023-01-04T04:16:31.603Z,7.73
2023-01-04T04:19:03.128Z,7.75
2023-01-04T04:21:33.889Z,7.73
2023-01-04T04:24:01.187Z,7.63
2023-01-04T04:26:28.520Z,7.63
2023-01-04T04:28:55.825Z,7.73
2023-01-04T04:31:23.155Z,7.69
2023-01-04T04:33:50.515Z,7.80
2023-01-04T04:36:17.811Z,7.85
2023-01-04T04:38:45.095Z,7.67
2023-01-04T04:41:32.098Z,7.74
2023-01-04T04:43:59.425Z,7.87
2023-01-04T04:46:26.796Z,7.83
2023-01-04T04:48:54.154Z,7.74
2023-01-04T04:51:21.428Z,7.84
2023-01-04T04:53:49.503Z,7.81
2023-01-04T04:56:16.814Z,7.78
2023-01-04T04:58:44.154Z,7.88
2023-01-04T05:01:11.497Z,7.92
2023-01-04T05:03:38.980Z,7.88
2023-01-04T05:06:06.408Z,7.97
2023-01-04T05:08:33.720Z,7.97
2023-01-04T05:11:02.421Z,8.02
2023-01-04T05:13:29.753Z,7.92
2023-01-04T05:15:57.088Z,7.97
2023-01-04T05:18:24.388Z,7.94
2023-01-04T05:20:51.674Z,7.90
2023-01-04T05:23:19.919Z,8.01
2023-01-04T05:25:53.348Z,8.05
2023-01-04T05:28:20.678Z,7.94
2023-01-04T05:30:53.797Z,7.95
2023-01-04T05:33:23.492Z,8.01
2023-01-04T05:35:51.351Z,7.99
2023-01-04T05:38:18.914Z,7.91
2023-01-04T05:40:46.431Z,8.02
2023-01-04T05:43:16.791Z,7.99
2023-01-04T05:45:44.383Z,7.97
2023-01-04T05:48:11.672Z,7.94
2023-01-04T05:50:38.992Z,8.02
2023-01-04T05:53:10.604Z,8.05
2023-01-04T05:55:37.935Z,7.87
2023-01-04T05:58:05.261Z,7.94
2023-01-04T06:00:32.596Z,8.11
2023-01-04T06:03:00.005Z,8.24
2023-01-04T06:05:27.380Z,8.12
2023-01-04T06:07:54.740Z,8.05
2023-01-04T06:10:22.082Z,8.14
2023-01-04T06:12:49.401Z,8.21
2023-01-04T06:15:16.824Z,8.24
2023-01-04T06:17:44.185Z,8.09
2023-01-04T06:20:11.786Z,8.21
2023-01-04T06:22:40.812Z,8.18
2023-01-04T06:25:09.048Z,8.29
2023-01-04T06:27:36.508Z,8.12
2023-01-04T06:30:04.523Z,7.71
2023-01-04T06:32:31.839Z,7.64
2023-01-04T06:34:59.193Z,7.53
2023-01-04T06:37:26.546Z,7.63
2023-01-04T06:39:53.834Z,7.66
2023-01-04T06:42:39.508Z,7.67
2023-01-04T06:45:07.166Z,7.80
2023-01-04T06:47:34.507Z,7.77
2023-01-04T06:50:01.960Z,7.84
2023-01-04T06:52:29.266Z,7.80
2023-01-04T06:54:56.654Z,7.85
2023-01-04T06:57:24.282Z,7.92
2023-01-04T06:59:51.648Z,7.98
2023-01-04T07:02:19.033Z,8.02
2023-01-04T07:04:46.547Z,8.01
2023-01-04T07:07:13.879Z,8.06
2023-01-04T07:09:41.249Z,8.11
2023-01-04T07:12:08.512Z,8.14
2023-01-04T07:14:35.838Z,8.11
2023-01-04T07:17:03.181Z,8.05
2023-01-04T07:19:30.510Z,8.01
2023-01-04T07:21:58.921Z,8.16
2023-01-04T07:24:30.371Z,8.05
2023-01-04T07:26:59.768Z,8.09
2023-01-04T07:29:27.209Z,8.12
2023-01-04T07:31:54.569Z,8.15
2023-01-04T07:34:25.280Z,8.08
2023-01-04T07:36:52.669Z,8.14
2023-01-04T07:39:19.998Z,8.14
2023-01-04T07:41:47.913Z,8.15
2023-01-04T07:44:18.615Z,8.18
2023-01-04T07:46:45.999Z,8.26
2023-01-04T07:49:17.774Z,8.36
2023-01-04T07:51:46.429Z,8.38
2023-01-04T07:54:14.451Z,8.53
2023-01-04T07:56:41.777Z,8.42
2023-01-04T07:59:09.625Z,8.41
2023-01-04T08:01:38.639Z,8.46
2023-01-04T08:04:07.011Z,8.56
2023-01-04T08:06:34.858Z,8.66
2023-01-04T08:09:02.714Z,8.64
2023-01-04T08:11:30.006Z,8.31
2023-01-04T08:13:57.319Z,8.24
2023-01-04T08:16:25.498Z,8.16
2023-01-04T08:18:53.627Z,8.21
2023-01-04T08:21:21.020Z,8.32
2023-01-04T08:23:48.354Z,8.38
2023-01-04T08:26:15.872Z,8.46
2023-01-04T08:28:43.325Z,8.48
2023-01-04T08:31:13.590Z,8.39
2023-01-04T08:33:41.006Z,8.41
2023-01-04T08:36:11.203Z,8.52
2023-01-04T08:41:56.063Z,8.48
2023-01-04T08:44:13.137Z,8.42
2023-01-04T08:46:40.521Z,8.52
2023-01-04T08:49:08.119Z,8.67
2023-01-04T08:51:35.447Z,8.79
2023-01-04T08:54:02.818Z,8.79
2023-01-04T08:56:30.144Z,8.72
2023-01-04T08:58:57.444Z,8.67
2023-01-04T09:01:24.886Z,8.70
2023-01-04T09:03:52.388Z,8.67
2023-01-04T09:06:19.741Z,8.81
2023-01-04T09:08:47.013Z,8.77
2023-01-04T09:11:18.252Z,8.83
2023-01-04T09:13:45.688Z,8.93
2023-01-04T09:16:14.828Z,8.84
2023-01-04T09:18:42.407Z,8.70
2023-01-04T09:21:20.191Z,8.85
2023-01-04T09:23:47.619Z,8.96
2023-01-04T09:26:21.750Z,8.99
2023-01-04T09:28:52.814Z,8.88
2023-01-04T09:31:22.279Z,8.81
2023-01-04T09:36:36.980Z,9.10
2023-01-04T09:39:04.577Z,9.28
2023-01-04T09:41:37.870Z,9.38
2023-01-04T09:45:12.235Z,9.34
2023-01-04T09:47:41.025Z,9.31
2023-01-04T09:50:22.297Z,9.43
2023-01-04T09:53:01.221Z,9.49
2023-01-04T09:55:37.462Z,9.49
2023-01-04T09:58:27.529Z,9.61
2023-01-04T10:01:05.079Z,9.55
2023-01-04T10:03:35.546Z,9.69
2023-01-04T10:06:03.236Z,9.79
2023-01-04T10:08:31.570Z,9.80
2023-01-04T10:11:16.503Z,10.03
2023-01-04T10:14:28.082Z,10.20
2023-01-04T10:17:44.606Z,10.11
2023-01-04T10:23:12.920Z,10.17
2023-01-04T10:25:52.900Z,10.00
2023-01-04T10:28:29.229Z,9.89
2023-01-04T10:31:39.573Z,9.90
2023-01-04T10:34:06.117Z,9.89
2023-01-04T10:36:33.530Z,10.09
2023-01-04T10:39:04.129Z,10.18
2023-01-04T10:41:37.263Z,10.22
2023-01-04T10:44:15.834Z,10.24
2023-01-04T10:47:13.464Z,10.27
2023-01-04T10:49:55.668Z,10.38
2023-01-04T10:52:30.068Z,10.44
2023-01-04T10:55:22.742Z,10.31
2023-01-04T10:57:52.782Z,10.51
2023-01-04T11:00:31.260Z,10.47
2023-01-04T11:03:09.828Z,10.54
2023-01-04T11:05:47.973Z,10.30
2023-01-04T11:08:24.243Z,10.45
2023-01-04T11:10:56.494Z,10.49
2023-01-04T11:13:24.173Z,10.68
2023-01-04T11:15:52.142Z,10.67
2023-01-04T11:18:19.509Z,10.73
2023-01-04T11:20:46.896Z,10.65
2023-01-04T11:23:18.970Z,10.54
2023-01-04T11:26:09.126Z,10.61
2023-01-04T11:28:52.142Z,10.76
2023-01-04T11:31:34.786Z,10.71
2023-01-04T11:34:03.054Z,10.67
2023-01-04T11:36:38.519Z,10.80
2023-01-04T11:39:11.064Z,10.73
2023-01-04T11:41:38.359Z,10.71
2023-01-04T11:44:06.890Z,10.96
2023-01-04T11:46:34.612Z,11.13
2023-01-04T11:49:01.901Z,11.06
2023-01-04T11:51:29.719Z,10.96
2023-01-04T11:54:05.131Z,11.12
2023-01-04T11:56:36.514Z,11.17
2023-01-04T11:59:20.634Z,10.99
2023-01-04T12:01:50.235Z,10.92
2023-01-04T12:04:23.331Z,10.99
2023-01-04T12:06:56.900Z,11.23
2023-01-04T12:09:24.241Z,11.40
2023-01-04T12:11:56.182Z,11.89
2023-01-04T12:14:36.074Z,12.18
2023-01-04T12:17:20.898Z,12.28
2023-01-04T12:19:49.102Z,11.96
2023-01-04T12:22:37.508Z,11.60
2023-01-04T12:25:08.183Z,11.56
2023-01-04T12:27:36.706Z,11.73
2023-01-04T12:30:08.304Z,11.75
2023-01-04T12:32:35.691Z,11.79
2023-01-04T12:35:02.996Z,11.61
2023-01-04T12:37:46.092Z,11.46
2023-01-04T12:40:44.250Z,11.37
2023-01-04T12:43:17.533Z,11.44
2023-01-04T12:45:46.118Z,11.37
2023-01-04T12:48:52.105Z,11.38
2023-01-04T12:51:37.290Z,11.33
2023-01-04T12:54:22.326Z,11.43
2023-01-04T12:57:21.150Z,11.41
2023-01-04T13:00:01.655Z,11.50
2023-01-04T13:02:35.930Z,11.51
2023-01-04T13:08:08.939Z,11.50
2023-01-04T13:10:36.367Z,11.51
2023-01-04T13:13:07.448Z,11.53
2023-01-04T13:15:49.859Z,11.50
2023-01-04T13:18:40.877Z,11.46
2023-01-04T13:21:14.159Z,11.46
2023-01-04T13:23:52.964Z,11.48
2023-01-04T13:26:39.691Z,11.44
2023-01-04T13:29:22.228Z,11.40
2023-01-04T13:31:55.356Z,11.43
2023-01-04T13:34:35.677Z,11.36
2023-01-04T13:37:19.051Z,11.36
2023-01-04T13:39:47.900Z,11.37
2023-01-04T13:42:36.669Z,11.43
2023-01-04T13:45:21.932Z,11.37
2023-01-04T13:47:50.999Z,11.38
2023-01-04T13:50:32.719Z,11.41
2023-01-04T13:53:06.854Z,11.40
2023-01-04T13:55:37.122Z,11.30
2023-01-04T13:58:17.193Z,11.30
2023-01-04T14:00:58.439Z,11.26
2023-01-04T14:03:46.725Z,11.23
2023-01-04T14:06:24.317Z,11.23
2023-01-04T14:09:09.946Z,11.22
2023-01-04T14:14:56.032Z,11.09
2023-01-04T14:17:35.419Z,11.07
2023-01-04T14:20:05.187Z,11.06
2023-01-04T14:22:36.606Z,11.00
2023-01-04T14:25:35.961Z,10.93
2023-01-04T14:28:30.560Z,10.86
2023-01-04T14:31:00.977Z,10.83
2023-01-04T14:33:45.079Z,10.78
2023-01-04T14:36:14.981Z,10.79
2023-01-04T14:38:47.377Z,10.71
2023-01-04T14:41:35.160Z,10.67
2023-01-04T14:44:15.353Z,10.61
2023-01-04T14:46:48.579Z,10.67
2023-01-04T14:49:16.274Z,10.61
2023-01-04T14:51:48.165Z,10.59
2023-01-04T14:54:22.169Z,10.58
2023-01-04T14:56:52.485Z,10.41
2023-01-04T14:59:19.873Z,10.40
2023-01-04T15:01:47.281Z,10.37
2023-01-04T15:04:14.764Z,10.38
2023-01-04T15:06:56.343Z,10.31
2023-01-04T15:09:23.705Z,10.22
2023-01-04T15:11:51.060Z,10.18
2023-01-04T15:14:18.569Z,10.14
2023-01-04T15:16:46.040Z,10.07
2023-01-04T15:19:13.427Z,10.04
2023-01-04T15:21:41.728Z,10.03
2023-01-04T15:24:10.114Z,9.94
2023-01-04T15:26:38.729Z,9.94
2023-01-04T15:29:06.983Z,10.03
2023-01-04T15:31:38.918Z,9.90
2023-01-04T15:34:07.232Z,9.80
2023-01-04T15:36:38.626Z,9.82
2023-01-04T15:39:07.247Z,9.82
2023-01-04T15:41:53.159Z,9.78
2023-01-04T15:44:20.540Z,9.76
2023-01-04T15:46:47.965Z,9.82
2023-01-04T15:49:17.792Z,9.78
2023-01-04T15:51:46.149Z,9.79
2023-01-04T15:54:13.736Z,9.80
2023-01-04T15:56:41.100Z,9.69
2023-01-04T15:59:08.455Z,9.80
2023-01-04T16:01:36.259Z,9.78
2023-01-04T16:04:06.184Z,9.72
2023-01-04T16:06:33.506Z,9.70
2023-01-04T16:09:02.082Z,9.68
2023-01-04T16:11:29.502Z,9.56
2023-01-04T16:13:56.934Z,9.53
2023-01-04T16:16:25.346Z,9.58
2023-01-04T16:18:53.579Z,9.43
2023-01-04T16:21:22.583Z,9.39
2023-01-04T16:24:03.834Z,9.38
2023-01-04T16:26:32.749Z,9.41
2023-01-04T16:29:00.904Z,9.48
2023-01-04T16:31:33.378Z,9.48
2023-01-04T16:34:00.799Z,9.45
2023-01-04T16:36:28.278Z,9.49
2023-01-04T16:38:55.646Z,9.35
2023-01-04T16:41:23.298Z,9.36
2023-01-04T16:43:55.543Z,9.39
2023-01-04T16:46:26.070Z,9.38
2023-01-04T16:48:55.015Z,9.42
2023-01-04T16:51:23.710Z,9.32
2023-01-04T16:53:51.316Z,9.30
2023-01-04T16:56:20.019Z,9.25
2023-01-04T16:58:48.417Z,9.28
2023-01-04T17:01:20.643Z,9.32
2023-01-04T17:03:48.385Z,9.28
2023-01-04T17:06:17.965Z,9.14
2023-01-04T17:08:46.253Z,9.27
2023-01-04T17:14:11.791Z,9.36
2023-01-04T17:16:39.300Z,9.21
2023-01-04T17:19:06.829Z,9.07
2023-01-04T17:21:35.339Z,9.08
2023-01-04T17:24:03.158Z,9.04
2023-01-04T17:26:31.710Z,9.05
2023-01-04T17:28:59.949Z,9.05
2023-01-04T17:31:32.115Z,8.93
2023-01-04T17:33:59.705Z,9.08
2023-01-04T17:36:27.214Z,9.12
2023-01-04T17:38:54.677Z,9.04
2023-01-04T17:41:23.629Z,9.04
2023-01-04T17:43:52.566Z,9.05
2023-01-04T17:46:23.597Z,9.03
2023-01-04T17:51:41.616Z,9.12
2023-01-04T17:54:11.117Z,9.17
2023-01-04T17:56:38.484Z,9.14
2023-01-04T17:59:08.806Z,9.15
2023-01-04T18:01:36.303Z,9.10
2023-01-04T18:04:04.091Z,9.07
2023-01-04T18:06:33.497Z,9.01
2023-01-04T18:09:01.497Z,9.14
2023-01-04T18:11:28.866Z,9.14
2023-01-04T18:13:56.146Z,9.12
2023-01-04T18:16:27.874Z,9.10
2023-01-04T18:18:56.491Z,8.85
2023-01-04T18:21:31.024Z,8.81
2023-01-04T18:27:19.800Z,8.88
2023-01-04T18:29:35.154Z,8.76
2023-01-04T18:32:02.529Z,8.76
2023-01-04T18:34:29.927Z,8.81
2023-01-04T18:36:57.232Z,8.84
2023-01-04T18:39:24.724Z,8.79
2023-01-04T18:41:52.080Z,8.76
2023-01-04T18:44:39.684Z,8.80
2023-01-04T18:47:09.203Z,8.84
2023-01-04T18:49:36.553Z,8.76
2023-01-04T18:52:04.053Z,8.77
2023-01-04T18:54:31.357Z,8.77
2023-01-04T18:57:01.037Z,8.70
2023-01-04T18:59:29.740Z,8.67
2023-01-04T19:02:04.099Z,8.60
2023-01-04T19:04:32.415Z,8.64
2023-01-04T19:06:59.915Z,8.59
2023-01-04T19:09:27.333Z,8.60
2023-01-04T19:11:54.683Z,8.60
2023-01-04T19:14:22.135Z,8.60
2023-01-04T19:16:49.484Z,8.48
2023-01-04T19:19:16.869Z,8.33
2023-01-04T19:21:44.191Z,8.38
2023-01-04T19:24:11.520Z,8.38
2023-01-04T19:26:39.186Z,8.35
2023-01-04T19:29:08.156Z,8.25
2023-01-04T19:31:35.695Z,8.31
2023-01-04T19:34:03.053Z,8.29
2023-01-04T19:36:30.379Z,8.14
2023-01-04T19:38:57.771Z,8.11
2023-01-04T19:41:33.470Z,7.97
2023-01-04T19:44:02.449Z,7.95
2023-01-04T19:46:30.574Z,7.94
2023-01-04T19:48:57.854Z,8.02
2023-01-04T19:51:25.277Z,8.02
2023-01-04T19:53:52.622Z,7.90
2023-01-04T19:56:19.984Z,7.91
2023-01-04T19:58:47.350Z,7.88
2023-01-04T20:01:19.562Z,7.83
2023-01-04T20:03:47.170Z,7.85
2023-01-04T20:06:14.747Z,7.84
2023-01-04T20:08:42.630Z,7.84
2023-01-04T20:11:10.196Z,7.83
2023-01-04T20:13:38.864Z,7.80
2023-01-04T20:16:06.670Z,7.80
2023-01-04T20:18:34.201Z,7.75
2023-01-04T20:21:01.656Z,7.87
2023-01-04T20:23:28.941Z,7.78
2023-01-04T20:25:56.230Z,7.66
2023-01-04T20:28:24.445Z,7.69
2023-01-04T20:31:02.554Z,7.66
2023-01-04T20:33:30.649Z,7.66
2023-01-04T20:35:57.951Z,7.74
2023-01-04T20:38:25.249Z,7.73
2023-01-04T20:40:52.524Z,7.70
2023-01-04T20:43:34.803Z,7.73
2023-01-04T20:46:03.000Z,7.70
2023-01-04T20:48:30.936Z,7.62
2023-01-04T20:50:58.229Z,7.56
2023-01-04T20:53:25.587Z,7.52
2023-01-04T20:55:52.884Z,7.54
2023-01-04T20:58:20.223Z,7.37
2023-01-04T21:00:47.884Z,7.39
2023-01-04T21:03:15.509Z,7.37
2023-01-04T21:05:44.163Z,7.32
2023-01-04T21:08:12.666Z,7.27
2023-01-04T21:10:41.237Z,7.18
2023-01-04T21:13:08.658Z,7.20
2023-01-04T21:15:37.283Z,7.23
2023-01-04T21:18:05.754Z,7.34
2023-01-04T21:20:33.194Z,7.26
2023-01-04T21:23:00.527Z,7.22
2023-01-04T21:25:27.849Z,7.08
2023-01-04T21:27:55.241Z,7.05
2023-01-04T21:30:22.554Z,7.02
2023-01-04T21:32:50.141Z,6.96
2023-01-04T21:35:17.488Z,6.98
2023-01-04T21:37:44.900Z,6.98
2023-01-04T21:40:12.611Z,6.89
2023-01-04T21:42:39.944Z,6.95
2023-01-04T21:45:07.822Z,6.98
2023-01-04T21:47:35.127Z,6.98
2023-01-04T21:50:02.382Z,6.95
2023-01-04T21:52:29.719Z,6.96
2023-01-04T21:54:57.042Z,7.02
2023-01-04T21:57:24.351Z,7.02
2023-01-04T21:59:52.101Z,6.96
2023-01-04T22:02:19.824Z,7.02
2023-01-04T22:04:47.878Z,7.08
2023-01-04T22:07:15.285Z,7.05
2023-01-04T22:09:42.614Z,7.09
2023-01-04T22:12:09.923Z,7.11
2023-01-04T22:14:37.232Z,7.11
2023-01-04T22:17:04.509Z,7.20
2023-01-04T22:19:31.825Z,7.23
2023-01-04T22:21:59.158Z,7.13
2023-01-04T22:24:26.449Z,7.04
2023-01-04T22:26:53.781Z,7.11
2023-01-04T22:29:21.223Z,7.02
2023-01-04T22:31:49.028Z,7.11
2023-01-04T22:34:17.056Z,6.99
2023-01-04T22:36:44.455Z,6.99
2023-01-04T22:39:11.816Z,6.98
2023-01-04T22:41:41.178Z,6.89
2023-01-04T22:44:08.445Z,6.94
2023-01-04T22:46:36.373Z,6.94
2023-01-04T22:49:03.862Z,6.95
2023-01-04T22:51:31.722Z,7.02
2023-01-04T22:54:06.045Z,6.95
2023-01-04T22:56:33.387Z,6.95
2023-01-04T22:59:00.688Z,6.94
2023-01-04T23:01:29.811Z,6.96
2023-01-04T23:03:58.048Z,7.05
2023-01-04T23:06:25.841Z,6.96
2023-01-04T23:08:59.658Z,6.99
2023-01-04T23:11:27.643Z,7.01
2023-01-04T23:13:55.393Z,7.09
2023-01-04T23:16:27.933Z,7.09
2023-01-04T23:18:57.405Z,7.13
2023-01-04T23:21:24.668Z,7.15
2023-01-04T23:23:51.981Z,7.15
2023-01-04T23:26:20.988Z,7.16
2023-01-04T23:28:48.445Z,7.16
2023-01-04T23:31:17.191Z,7.16
2023-01-04T23:33:44.667Z,7.19
2023-01-04T23:36:13.031Z,7.16
2023-01-04T23:38:40.650Z,7.15
2023-01-04T23:41:08.125Z,7.18
2023-01-04T23:43:36.694Z,7.26
2023-01-04T23:46:08.236Z,7.16
2023-01-04T23:48:35.580Z,7.15
2023-01-04T23:51:02.905Z,7.18
2023-01-04T23:53:30.223Z,7.20
2023-01-04T23:56:05.912Z,7.15
2023-01-04T23:58:33.631Z,7.16
